createdAt,value
2022-11-16T05:03:22.594Z,64.14
2022-11-16T05:07:26.390Z,64.72
2022-11-16T05:11:36.673Z,65.91
2022-11-16T05:15:39.517Z,66.45
2022-11-16T05:20:00.927Z,66.99
2022-11-16T05:24:25.071Z,67.21
2022-11-16T05:28:28.505Z,67.06
2022-11-16T05:32:31.674Z,67.79
2022-11-16T05:36:37.658Z,67.91
2022-11-16T05:40:40.348Z,68.24
2022-11-16T05:44:43.033Z,68.65
2022-11-16T05:48:46.167Z,69.59
2022-11-16T05:52:50.537Z,70.20
2022-11-16T05:56:53.867Z,71.24
2022-11-16T06:00:58.578Z,71.78
2022-11-16T06:05:02.007Z,72.21
2022-11-16T06:09:06.290Z,72.56
2022-11-16T06:13:10.063Z,73.22
2022-11-16T06:17:14.468Z,73.49
2022-11-16T06:21:18.456Z,73.36
2022-11-16T06:25:23.312Z,73.57
2022-11-16T06:29:26.000Z,73.23
2022-11-16T06:33:33.394Z,73.63
2022-11-16T06:37:39.187Z,73.35
2022-11-16T06:41:43.880Z,73.45
2022-11-16T06:45:49.849Z,73.66
2022-11-16T06:49:52.613Z,73.56
2022-11-16T06:53:58.030Z,73.51
2022-11-16T06:58:04.054Z,73.48
2022-11-16T07:02:07.273Z,73.35
2022-11-16T07:06:14.610Z,73.36
2022-11-16T07:10:20.204Z,73.20
2022-11-16T07:14:24.742Z,72.91
2022-11-16T07:18:27.481Z,72.75
2022-11-16T07:22:30.701Z,72.90
2022-11-16T07:26:35.203Z,72.60
2022-11-16T07:30:46.714Z,72.40
2022-11-16T07:34:59.043Z,72.18
2022-11-16T07:39:02.973Z,72.63
2022-11-16T07:43:06.070Z,72.66
2022-11-16T07:47:29.188Z,72.45
2022-11-16T07:51:33.205Z,72.50
2022-11-16T07:55:54.281Z,72.50
2022-11-16T07:59:58.273Z,72.86
2022-11-16T08:04:02.770Z,73.32
2022-11-16T08:08:06.337Z,73.07
2022-11-16T08:12:11.454Z,73.27
2022-11-16T08:16:16.399Z,73.74
2022-11-16T08:20:22.394Z,73.92
2022-11-16T08:24:27.769Z,74.58
2022-11-16T08:28:31.576Z,74.55
2022-11-16T08:32:35.089Z,74.97
2022-11-16T08:36:39.726Z,74.39
2022-11-16T08:40:42.607Z,74.70
2022-11-16T08:44:46.342Z,74.76
2022-11-16T08:48:55.884Z,74.62
2022-11-16T08:53:01.071Z,75.01
2022-11-16T08:57:03.827Z,74.79
2022-11-16T09:01:10.911Z,74.50
2022-11-16T09:05:13.572Z,74.46
2022-11-16T09:09:17.552Z,74.44
2022-11-16T09:13:20.146Z,74.67
2022-11-16T09:17:23.362Z,74.88
2022-11-16T09:21:27.583Z,75.38
2022-11-16T09:25:31.535Z,75.94
2022-11-16T09:29:34.136Z,75.82
2022-11-16T09:33:37.992Z,76.06
2022-11-16T09:37:40.800Z,75.98
2022-11-16T09:42:06.507Z,75.70
2022-11-16T09:46:21.052Z,75.41
2022-11-16T09:50:33.300Z,75.55
2022-11-16T09:54:40.718Z,75.39
2022-11-16T09:58:52.201Z,75.41
2022-11-16T10:03:02.044Z,75.33
2022-11-16T10:07:09.068Z,75.29
2022-11-16T10:11:29.049Z,75.02
2022-11-16T10:15:58.120Z,75.08
2022-11-16T10:20:17.452Z,75.24
2022-11-16T10:24:29.117Z,75.53
2022-11-16T10:29:09.589Z,74.83
2022-11-16T10:33:18.217Z,74.82
2022-11-16T10:37:21.790Z,74.42
2022-11-16T10:41:30.424Z,73.99
2022-11-16T10:45:40.533Z,73.60
2022-11-16T10:49:52.633Z,73.35
2022-11-16T10:53:56.013Z,73.74
2022-11-16T10:58:00.546Z,73.12
2022-11-16T11:02:27.715Z,72.73
2022-11-16T11:06:32.767Z,72.69
2022-11-16T11:10:38.649Z,72.88
2022-11-16T11:14:41.273Z,72.94
2022-11-16T11:18:43.976Z,72.23
2022-11-16T11:22:53.516Z,72.71
2022-11-16T11:26:58.761Z,72.93
2022-11-16T11:31:04.768Z,73.13
2022-11-16T11:35:15.800Z,73.43
2022-11-16T11:39:35.084Z,73.01
2022-11-16T11:43:38.441Z,72.96
2022-11-16T11:48:04.234Z,72.71
2022-11-16T11:52:17.164Z,73.44
2022-11-16T11:56:21.573Z,73.42
2022-11-16T12:00:26.025Z,73.55
2022-11-16T12:05:05.588Z,74.43
2022-11-16T12:09:31.860Z,75.29
2022-11-16T12:13:52.771Z,75.18
2022-11-16T12:18:03.600Z,75.22
2022-11-16T12:22:19.701Z,75.65
2022-11-16T12:26:29.889Z,75.47
2022-11-16T12:30:38.925Z,75.62
2022-11-16T12:34:56.440Z,75.46
2022-11-16T12:39:12.210Z,75.70
2022-11-16T12:43:22.279Z,75.60
2022-11-16T12:47:34.324Z,75.21
2022-11-16T12:51:51.969Z,74.67
2022-11-16T12:56:06.161Z,74.33
2022-11-16T13:00:11.414Z,74.32
2022-11-16T13:04:19.625Z,74.46
2022-11-16T13:08:39.504Z,74.38
2022-11-16T13:12:45.462Z,74.88
2022-11-16T13:16:49.096Z,74.99
2022-11-16T13:20:59.580Z,74.99
2022-11-16T13:25:13.510Z,75.39
2022-11-16T13:29:23.368Z,74.97
2022-11-16T13:33:38.689Z,74.20
2022-11-16T13:37:50.059Z,74.34
2022-11-16T13:42:07.265Z,74.31
2022-11-16T13:46:22.389Z,73.88
2022-11-16T13:50:38.218Z,73.55
2022-11-16T13:54:46.635Z,73.33
2022-11-16T13:58:52.445Z,72.92
2022-11-16T14:03:27.900Z,72.42
2022-11-16T14:07:36.860Z,71.97
2022-11-16T14:11:41.124Z,71.89
2022-11-16T14:15:43.749Z,71.93
2022-11-16T14:19:55.909Z,72.24
2022-11-16T14:24:11.538Z,72.96
2022-11-16T14:28:43.544Z,73.11
2022-11-16T14:32:48.489Z,73.44
2022-11-16T14:36:51.541Z,73.54
2022-11-16T14:40:59.847Z,73.58
2022-11-16T14:45:07.455Z,72.97
2022-11-16T14:49:15.978Z,72.32
2022-11-16T14:53:20.978Z,71.59
2022-11-16T14:57:24.941Z,71.58
2022-11-16T15:01:30.626Z,71.79
2022-11-16T15:05:36.186Z,72.69
2022-11-16T15:09:41.694Z,72.94
2022-11-16T15:13:46.865Z,73.97
2022-11-16T15:18:07.398Z,74.52
2022-11-16T15:22:18.703Z,75.36
2022-11-16T15:26:23.058Z,75.54
2022-11-16T15:30:27.690Z,75.46
2022-11-16T15:34:32.160Z,75.39
2022-11-16T15:38:37.430Z,75.33
2022-11-16T15:42:42.604Z,75.59
2022-11-16T15:46:47.991Z,75.29
2022-11-16T15:51:08.278Z,75.30
2022-11-16T15:55:31.744Z,75.49
2022-11-16T15:59:36.544Z,76.09
2022-11-16T16:03:39.856Z,76.06
2022-11-16T16:07:45.710Z,76.50
2022-11-16T16:11:48.799Z,76.44
2022-11-16T16:16:12.890Z,75.67
2022-11-16T16:20:19.238Z,75.92
2022-11-16T16:24:38.728Z,75.95
2022-11-16T16:28:41.804Z,75.55
2022-11-16T16:32:49.172Z,75.34
2022-11-16T16:36:51.826Z,75.51
2022-11-16T16:41:01.331Z,75.50
2022-11-16T16:45:04.176Z,75.71
2022-11-16T16:49:07.911Z,75.90
2022-11-16T16:53:12.139Z,75.82
2022-11-16T16:57:17.201Z,76.30
2022-11-16T17:01:19.835Z,75.81
2022-11-16T17:05:22.513Z,75.97
2022-11-16T17:09:25.126Z,76.48
2022-11-16T17:13:29.080Z,77.11
2022-11-16T17:17:32.629Z,76.79
2022-11-16T17:21:35.093Z,76.53
2022-11-16T17:25:38.064Z,76.47
2022-11-16T17:29:42.010Z,76.48
2022-11-16T17:33:44.792Z,76.66
2022-11-16T17:37:47.609Z,76.66
2022-11-16T17:41:50.916Z,76.12
2022-11-16T17:46:02.999Z,76.50
2022-11-16T17:50:06.380Z,76.46
2022-11-16T17:54:10.033Z,76.40
2022-11-16T17:58:12.651Z,76.36
2022-11-16T18:02:16.650Z,76.40
2022-11-16T18:06:21.361Z,76.33
2022-11-16T18:10:24.322Z,75.91
2022-11-16T18:14:27.146Z,75.29
2022-11-16T18:18:31.174Z,75.76
2022-11-16T18:22:33.784Z,75.64
2022-11-16T18:26:36.583Z,75.49
2022-11-16T18:30:39.483Z,75.53
2022-11-16T18:34:44.126Z,75.74
2022-11-16T18:38:47.120Z,75.52
2022-11-16T18:42:49.730Z,75.65
2022-11-16T18:46:52.395Z,75.54
2022-11-16T18:50:59.574Z,75.28
2022-11-16T18:55:02.380Z,75.85
2022-11-16T18:59:05.153Z,75.68
2022-11-16T19:03:11.250Z,75.85
2022-11-16T19:07:15.553Z,75.89
2022-11-16T19:11:18.462Z,76.00
2022-11-16T19:15:21.122Z,76.10
2022-11-16T19:19:25.363Z,76.43
2022-11-16T19:23:29.398Z,76.76
2022-11-16T19:27:32.441Z,76.67
2022-11-16T19:31:35.044Z,77.15
2022-11-16T19:35:38.020Z,76.92
2022-11-16T19:39:42.042Z,76.67
2022-11-16T19:43:44.704Z,76.55
2022-11-16T19:47:47.347Z,76.68
2022-11-16T19:51:50.271Z,76.49
2022-11-16T19:55:57.392Z,76.53
2022-11-16T19:59:59.998Z,76.64
2022-11-16T20:04:04.039Z,77.44
2022-11-16T20:08:06.666Z,78.09
2022-11-16T20:12:10.608Z,77.57
2022-11-16T20:16:14.966Z,77.46
2022-11-16T20:20:17.732Z,77.60
2022-11-16T20:24:20.389Z,77.62
2022-11-16T20:28:24.313Z,76.92
2022-11-16T20:32:26.905Z,76.35
2022-11-16T20:36:30.860Z,76.01
2022-11-16T20:40:33.491Z,75.60
2022-11-16T20:44:37.414Z,75.74
2022-11-16T20:48:41.436Z,75.83
2022-11-16T20:52:47.248Z,76.01
2022-11-16T20:56:54.149Z,75.97
2022-11-16T21:01:00.716Z,76.19
2022-11-16T21:05:03.456Z,76.55
2022-11-16T21:09:06.531Z,77.31
2022-11-16T21:13:31.007Z,78.16
2022-11-16T21:17:35.309Z,78.68
2022-11-16T21:21:40.457Z,79.38
2022-11-16T21:25:43.290Z,79.30
2022-11-16T21:29:45.859Z,80.04
2022-11-16T21:33:49.832Z,79.42
2022-11-16T21:37:52.404Z,79.61
2022-11-16T21:41:54.996Z,79.50
2022-11-16T21:46:03.172Z,79.49
2022-11-16T21:50:30.582Z,79.15
2022-11-16T21:54:47.226Z,79.46
2022-11-16T21:58:52.568Z,79.74
